sensor_id;sensor_type;location;lat;lon;timestamp;P1;durP1;ratioP1;P2;durP2;ratioP2
2720;SDS011;1368;49.484;11.112;2023-03-01T00:02:11;32.50;;;17.37;;
2720;SDS011;1368;49.484;11.112;2023-03-01T00:04:36;32.97;;;18.13;;
2720;SDS011;1368;49.484;11.112;2023-03-01T00:07:02;24.13;;;13.60;;
2720;SDS011;1368;49.484;11.112;2023-03-01T00:09:27;29.73;;;16.10;;
2720;SDS011;1368;49.484;11.112;2023-03-01T00:11:53;29.13;;;17.03;;
2720;SDS011;1368;49.484;11.112;2023-03-01T00:14:18;29.43;;;18.07;;
2720;SDS011;1368;49.484;11.112;2023-03-01T00:16:44;31.27;;;17.47;;
2720;SDS011;1368;49.484;11.112;2023-03-01T00:19:14;33.40;;;16.97;;
2720;SDS011;1368;49.484;11.112;2023-03-01T00:21:42;29.23;;;17.23;;
2720;SDS011;1368;49.484;11.112;2023-03-01T00:24:08;32.40;;;15.57;;
2720;SDS011;1368;49.484;11.112;2023-03-01T00:26:33;31.10;;;18.70;;
2720;SDS011;1368;49.484;11.112;2023-03-01T00:28:59;29.27;;;14.20;;
2720;SDS011;1368;49.484;11.112;2023-03-01T00:31:28;35.20;;;17.23;;
2720;SDS011;1368;49.484;11.112;2023-03-01T00:33:56;28.90;;;15.90;;
2720;SDS011;1368;49.484;11.112;2023-03-01T00:36:25;27.87;;;16.60;;
2720;SDS011;1368;49.484;11.112;2023-03-01T00:38:52;27.23;;;16.50;;
2720;SDS011;1368;49.484;11.112;2023-03-01T00:41:19;32.60;;;16.87;;
2720;SDS011;1368;49.484;11.112;2023-03-01T00:43:47;32.60;;;17.73;;
2720;SDS011;1368;49.484;11.112;2023-03-01T00:46:15;31.10;;;16.60;;
2720;SDS011;1368;49.484;11.112;2023-03-01T00:48:43;34.43;;;17.70;;
2720;SDS011;1368;49.484;11.112;2023-03-01T00:51:10;28.53;;;17.47;;
2720;SDS011;1368;49.484;11.112;2023-03-01T00:53:37;33.47;;;18.03;;
2720;SDS011;1368;49.484;11.112;2023-03-01T00:56:04;28.27;;;17.77;;
2720;SDS011;1368;49.484;11.112;2023-03-01T00:58:31;29.53;;;17.33;;
2720;SDS011;1368;49.484;11.112;2023-03-01T01:00:57;31.07;;;16.03;;
2720;SDS011;1368;49.484;11.112;2023-03-01T01:03:23;32.67;;;16.83;;
2720;SDS011;1368;49.484;11.112;2023-03-01T01:05:50;35.53;;;17.83;;
2720;SDS011;1368;49.484;11.112;2023-03-01T01:08:19;29.80;;;15.83;;
2720;SDS011;1368;49.484;11.112;2023-03-01T01:10:45;38.33;;;20.37;;
2720;SDS011;1368;49.484;11.112;2023-03-01T01:13:11;30.60;;;17.60;;
2720;SDS011;1368;49.484;11.112;2023-03-01T01:15:37;28.97;;;16.13;;
2720;SDS011;1368;49.484;11.112;2023-03-01T01:18:04;41.47;;;19.10;;
2720;SDS011;1368;49.484;11.112;2023-03-01T01:20:30;32.47;;;17.60;;
2720;SDS011;1368;49.484;11.112;2023-03-01T01:22:55;32.57;;;18.63;;
2720;SDS011;1368;49.484;11.112;2023-03-01T01:25:21;23.20;;;14.67;;
2720;SDS011;1368;49.484;11.112;2023-03-01T01:27:46;32.60;;;18.00;;
2720;SDS011;1368;49.484;11.112;2023-03-01T01:30:12;36.37;;;17.43;;
2720;SDS011;1368;49.484;11.112;2023-03-01T01:32:38;31.23;;;18.13;;
2720;SDS011;1368;49.484;11.112;2023-03-01T01:35:04;29.73;;;16.70;;
2720;SDS011;1368;49.484;11.112;2023-03-01T01:37:30;33.00;;;18.80;;
2720;SDS011;1368;49.484;11.112;2023-03-01T01:39:58;35.20;;;16.50;;
2720;SDS011;1368;49.484;11.112;2023-03-01T01:42:25;32.53;;;17.40;;
2720;SDS011;1368;49.484;11.112;2023-03-01T01:47:54;28.07;;;17.23;;
2720;SDS011;1368;49.484;11.112;2023-03-01T01:50:23;35.83;;;19.80;;
2720;SDS011;1368;49.484;11.112;2023-03-01T01:52:49;31.90;;;17.30;;
2720;SDS011;1368;49.484;11.112;2023-03-01T01:55:21;32.30;;;17.47;;
2720;SDS011;1368;49.484;11.112;2023-03-01T01:57:54;34.83;;;18.30;;
2720;SDS011;1368;49.484;11.112;2023-03-01T02:00:24;33.17;;;17.70;;
2720;SDS011;1368;49.484;11.112;2023-03-01T02:02:53;36.03;;;19.90;;
2720;SDS011;1368;49.484;11.112;2023-03-01T02:05:24;29.63;;;17.07;;
2720;SDS011;1368;49.484;11.112;2023-03-01T02:07:59;39.60;;;17.53;;
2720;SDS011;1368;49.484;11.112;2023-03-01T02:10:25;33.90;;;18.33;;
2720;SDS011;1368;49.484;11.112;2023-03-01T02:12:52;29.90;;;16.67;;
2720;SDS011;1368;49.484;11.112;2023-03-01T02:15:18;31.83;;;18.87;;
2720;SDS011;1368;49.484;11.112;2023-03-01T02:17:44;41.43;;;19.87;;
2720;SDS011;1368;49.484;11.112;2023-03-01T02:20:19;33.03;;;18.27;;
2720;SDS011;1368;49.484;11.112;2023-03-01T02:22:48;35.50;;;18.67;;
2720;SDS011;1368;49.484;11.112;2023-03-01T02:30:18;34.57;;;18.77;;
2720;SDS011;1368;49.484;11.112;2023-03-01T02:32:45;33.93;;;17.57;;
2720;SDS011;1368;49.484;11.112;2023-03-01T02:35:13;36.80;;;20.00;;
2720;SDS011;1368;49.484;11.112;2023-03-01T02:37:42;36.30;;;18.07;;
2720;SDS011;1368;49.484;11.112;2023-03-01T02:40:10;33.53;;;19.50;;
2720;SDS011;1368;49.484;11.112;2023-03-01T02:43:00;34.23;;;18.13;;
2720;SDS011;1368;49.484;11.112;2023-03-01T02:45:26;37.43;;;18.67;;
2720;SDS011;1368;49.484;11.112;2023-03-01T02:47:55;37.87;;;16.90;;
2720;SDS011;1368;49.484;11.112;2023-03-01T02:52:56;33.03;;;17.40;;
2720;SDS011;1368;49.484;11.112;2023-03-01T02:55:26;39.27;;;18.30;;
2720;SDS011;1368;49.484;11.112;2023-03-01T02:57:52;41.30;;;18.43;;
2720;SDS011;1368;49.484;11.112;2023-03-01T03:00:24;25.97;;;14.00;;
2720;SDS011;1368;49.484;11.112;2023-03-01T03:02:54;36.07;;;18.20;;
2720;SDS011;1368;49.484;11.112;2023-03-01T03:05:26;33.03;;;17.53;;
2720;SDS011;1368;49.484;11.112;2023-03-01T03:07:53;34.57;;;18.10;;
2720;SDS011;1368;49.484;11.112;2023-03-01T03:10:24;34.17;;;17.50;;
2720;SDS011;1368;49.484;11.112;2023-03-01T03:12:54;33.33;;;17.67;;
2720;SDS011;1368;49.484;11.112;2023-03-01T03:15:31;36.63;;;18.63;;
2720;SDS011;1368;49.484;11.112;2023-03-01T03:18:01;31.90;;;17.47;;
2720;SDS011;1368;49.484;11.112;2023-03-01T03:20:28;31.60;;;17.30;;
2720;SDS011;1368;49.484;11.112;2023-03-01T03:22:55;31.47;;;16.97;;
2720;SDS011;1368;49.484;11.112;2023-03-01T03:25:23;30.73;;;18.27;;
2720;SDS011;1368;49.484;11.112;2023-03-01T03:27:50;30.97;;;16.90;;
2720;SDS011;1368;49.484;11.112;2023-03-01T03:30:22;34.40;;;17.60;;
2720;SDS011;1368;49.484;11.112;2023-03-01T03:32:55;31.80;;;18.20;;
2720;SDS011;1368;49.484;11.112;2023-03-01T03:35:23;34.93;;;18.80;;
2720;SDS011;1368;49.484;11.112;2023-03-01T03:37:55;33.30;;;17.67;;
2720;SDS011;1368;49.484;11.112;2023-03-01T03:40:31;33.67;;;19.80;;
2720;SDS011;1368;49.484;11.112;2023-03-01T03:42:57;31.47;;;18.90;;
2720;SDS011;1368;49.484;11.112;2023-03-01T03:45:22;33.53;;;18.60;;
2720;SDS011;1368;49.484;11.112;2023-03-01T03:47:48;43.40;;;19.40;;
2720;SDS011;1368;49.484;11.112;2023-03-01T03:50:14;39.47;;;17.73;;
2720;SDS011;1368;49.484;11.112;2023-03-01T03:52:41;28.93;;;16.50;;
2720;SDS011;1368;49.484;11.112;2023-03-01T03:55:08;45.23;;;19.40;;
2720;SDS011;1368;49.484;11.112;2023-03-01T03:57:39;29.57;;;17.80;;
2720;SDS011;1368;49.484;11.112;2023-03-01T04:00:07;35.70;;;16.73;;
2720;SDS011;1368;49.484;11.112;2023-03-01T04:02:40;34.37;;;19.77;;
2720;SDS011;1368;49.484;11.112;2023-03-01T04:05:07;30.20;;;18.40;;
2720;SDS011;1368;49.484;11.112;2023-03-01T04:07:35;31.13;;;18.83;;
2720;SDS011;1368;49.484;11.112;2023-03-01T04:10:02;29.50;;;19.00;;
2720;SDS011;1368;49.484;11.112;2023-03-01T04:12:33;34.60;;;18.87;;
2720;SDS011;1368;49.484;11.112;2023-03-01T04:15:03;32.73;;;18.67;;
2720;SDS011;1368;49.484;11.112;2023-03-01T04:17:38;33.53;;;18.23;;
2720;SDS011;1368;49.484;11.112;2023-03-01T04:20:09;28.77;;;17.40;;
2720;SDS011;1368;49.484;11.112;2023-03-01T04:22:36;30.83;;;18.13;;
2720;SDS011;1368;49.484;11.112;2023-03-01T04:25:02;34.80;;;18.60;;
2720;SDS011;1368;49.484;11.112;2023-03-01T04:27:29;30.93;;;17.63;;
2720;SDS011;1368;49.484;11.112;2023-03-01T04:29:55;36.00;;;20.77;;
2720;SDS011;1368;49.484;11.112;2023-03-01T04:32:20;34.17;;;19.50;;
2720;SDS011;1368;49.484;11.112;2023-03-01T04:34:46;35.07;;;18.23;;
2720;SDS011;1368;49.484;11.112;2023-03-01T04:37:12;31.63;;;18.60;;
2720;SDS011;1368;49.484;11.112;2023-03-01T04:39:37;39.03;;;19.50;;
2720;SDS011;1368;49.484;11.112;2023-03-01T04:42:10;32.27;;;17.17;;
2720;SDS011;1368;49.484;11.112;2023-03-01T04:44:36;28.43;;;17.63;;
2720;SDS011;1368;49.484;11.112;2023-03-01T04:47:02;31.13;;;18.27;;
2720;SDS011;1368;49.484;11.112;2023-03-01T04:49:28;30.50;;;18.57;;
2720;SDS011;1368;49.484;11.112;2023-03-01T04:51:53;33.97;;;19.80;;
2720;SDS011;1368;49.484;11.112;2023-03-01T04:54:19;35.30;;;20.13;;
2720;SDS011;1368;49.484;11.112;2023-03-01T04:56:44;32.10;;;19.20;;
2720;SDS011;1368;49.484;11.112;2023-03-01T04:59:10;36.23;;;19.83;;
2720;SDS011;1368;49.484;11.112;2023-03-01T05:01:37;30.67;;;19.13;;
2720;SDS011;1368;49.484;11.112;2023-03-01T05:04:03;35.47;;;18.90;;
2720;SDS011;1368;49.484;11.112;2023-03-01T05:06:30;34.70;;;18.53;;
2720;SDS011;1368;49.484;11.112;2023-03-01T05:08:56;32.50;;;19.73;;
2720;SDS011;1368;49.484;11.112;2023-03-01T05:11:22;36.87;;;19.33;;
2720;SDS011;1368;49.484;11.112;2023-03-01T05:13:48;36.10;;;20.10;;
2720;SDS011;1368;49.484;11.112;2023-03-01T05:16:19;35.53;;;19.57;;
2720;SDS011;1368;49.484;11.112;2023-03-01T05:18:45;35.33;;;20.30;;
2720;SDS011;1368;49.484;11.112;2023-03-01T05:21:11;35.83;;;18.90;;
2720;SDS011;1368;49.484;11.112;2023-03-01T05:23:42;38.30;;;20.50;;
2720;SDS011;1368;49.484;11.112;2023-03-01T05:26:07;34.63;;;19.73;;
2720;SDS011;1368;49.484;11.112;2023-03-01T05:28:34;33.67;;;20.00;;
2720;SDS011;1368;49.484;11.112;2023-03-01T05:31:00;34.93;;;19.30;;
2720;SDS011;1368;49.484;11.112;2023-03-01T05:33:26;36.87;;;20.07;;
2720;SDS011;1368;49.484;11.112;2023-03-01T05:35:52;35.20;;;20.10;;
2720;SDS011;1368;49.484;11.112;2023-03-01T05:38:18;30.57;;;18.50;;
2720;SDS011;1368;49.484;11.112;2023-03-01T05:40:46;34.20;;;20.23;;
2720;SDS011;1368;49.484;11.112;2023-03-01T05:43:14;38.97;;;21.67;;
2720;SDS011;1368;49.484;11.112;2023-03-01T05:45:40;36.57;;;21.27;;
2720;SDS011;1368;49.484;11.112;2023-03-01T05:48:07;36.27;;;20.53;;
2720;SDS011;1368;49.484;11.112;2023-03-01T05:50:35;41.93;;;21.37;;
2720;SDS011;1368;49.484;11.112;2023-03-01T05:53:03;34.77;;;20.13;;
2720;SDS011;1368;49.484;11.112;2023-03-01T05:55:31;41.10;;;22.77;;
2720;SDS011;1368;49.484;11.112;2023-03-01T05:58:00;35.73;;;20.57;;
2720;SDS011;1368;49.484;11.112;2023-03-01T06:00:27;35.50;;;19.17;;
2720;SDS011;1368;49.484;11.112;2023-03-01T06:02:55;42.73;;;22.10;;
2720;SDS011;1368;49.484;11.112;2023-03-01T06:05:21;41.27;;;21.10;;
2720;SDS011;1368;49.484;11.112;2023-03-01T06:07:47;38.63;;;20.60;;
2720;SDS011;1368;49.484;11.112;2023-03-01T06:10:13;38.03;;;21.40;;
2720;SDS011;1368;49.484;11.112;2023-03-01T06:12:40;40.83;;;22.23;;
2720;SDS011;1368;49.484;11.112;2023-03-01T06:15:07;35.80;;;20.20;;
2720;SDS011;1368;49.484;11.112;2023-03-01T06:17:35;37.90;;;21.00;;
2720;SDS011;1368;49.484;11.112;2023-03-01T06:20:05;38.13;;;21.30;;
2720;SDS011;1368;49.484;11.112;2023-03-01T06:22:36;37.70;;;22.57;;
2720;SDS011;1368;49.484;11.112;2023-03-01T06:25:02;40.67;;;22.20;;
2720;SDS011;1368;49.484;11.112;2023-03-01T06:27:28;40.30;;;20.83;;
2720;SDS011;1368;49.484;11.112;2023-03-01T06:29:54;36.30;;;21.27;;
2720;SDS011;1368;49.484;11.112;2023-03-01T06:32:19;35.30;;;21.20;;
2720;SDS011;1368;49.484;11.112;2023-03-01T06:34:45;35.70;;;18.70;;
2720;SDS011;1368;49.484;11.112;2023-03-01T06:37:11;40.10;;;21.43;;
2720;SDS011;1368;49.484;11.112;2023-03-01T06:39:36;38.63;;;20.77;;
2720;SDS011;1368;49.484;11.112;2023-03-01T06:42:02;36.13;;;22.40;;
2720;SDS011;1368;49.484;11.112;2023-03-01T06:44:28;34.10;;;19.30;;
2720;SDS011;1368;49.484;11.112;2023-03-01T06:46:53;38.40;;;22.40;;
2720;SDS011;1368;49.484;11.112;2023-03-01T06:49:19;37.90;;;23.63;;
2720;SDS011;1368;49.484;11.112;2023-03-01T06:51:45;38.60;;;22.90;;
2720;SDS011;1368;49.484;11.112;2023-03-01T06:54:11;50.13;;;26.10;;
2720;SDS011;1368;49.484;11.112;2023-03-01T06:56:37;50.23;;;23.10;;
2720;SDS011;1368;49.484;11.112;2023-03-01T06:59:03;41.00;;;24.30;;
2720;SDS011;1368;49.484;11.112;2023-03-01T07:01:29;32.33;;;22.00;;
2720;SDS011;1368;49.484;11.112;2023-03-01T07:03:55;30.23;;;21.63;;
2720;SDS011;1368;49.484;11.112;2023-03-01T07:06:21;35.20;;;24.93;;
2720;SDS011;1368;49.484;11.112;2023-03-01T07:08:46;35.57;;;22.30;;
2720;SDS011;1368;49.484;11.112;2023-03-01T07:11:12;34.80;;;23.60;;
2720;SDS011;1368;49.484;11.112;2023-03-01T07:13:38;30.43;;;21.40;;
2720;SDS011;1368;49.484;11.112;2023-03-01T07:16:04;30.80;;;22.03;;
2720;SDS011;1368;49.484;11.112;2023-03-01T07:18:30;31.80;;;20.17;;
2720;SDS011;1368;49.484;11.112;2023-03-01T07:20:55;33.03;;;22.90;;
2720;SDS011;1368;49.484;11.112;2023-03-01T07:23:21;28.87;;;22.00;;
2720;SDS011;1368;49.484;11.112;2023-03-01T07:25:53;34.27;;;23.43;;
2720;SDS011;1368;49.484;11.112;2023-03-01T07:28:19;34.20;;;22.13;;
2720;SDS011;1368;49.484;11.112;2023-03-01T07:30:47;33.53;;;21.20;;
2720;SDS011;1368;49.484;11.112;2023-03-01T07:33:12;32.93;;;23.47;;
2720;SDS011;1368;49.484;11.112;2023-03-01T07:35:38;30.67;;;22.20;;
2720;SDS011;1368;49.484;11.112;2023-03-01T07:38:03;32.17;;;21.23;;
2720;SDS011;1368;49.484;11.112;2023-03-01T07:40:29;28.50;;;20.97;;
2720;SDS011;1368;49.484;11.112;2023-03-01T07:42:55;31.90;;;20.97;;
2720;SDS011;1368;49.484;11.112;2023-03-01T07:45:21;29.07;;;22.07;;
2720;SDS011;1368;49.484;11.112;2023-03-01T07:47:47;31.33;;;22.20;;
2720;SDS011;1368;49.484;11.112;2023-03-01T07:50:12;29.50;;;19.20;;
2720;SDS011;1368;49.484;11.112;2023-03-01T07:52:38;33.90;;;22.53;;
2720;SDS011;1368;49.484;11.112;2023-03-01T07:55:04;33.23;;;19.57;;
2720;SDS011;1368;49.484;11.112;2023-03-01T07:57:30;32.10;;;21.10;;
2720;SDS011;1368;49.484;11.112;2023-03-01T07:59:56;28.63;;;17.00;;
2720;SDS011;1368;49.484;11.112;2023-03-01T08:02:22;35.73;;;21.50;;
2720;SDS011;1368;49.484;11.112;2023-03-01T08:04:47;33.77;;;23.30;;
2720;SDS011;1368;49.484;11.112;2023-03-01T08:07:13;30.10;;;20.30;;
2720;SDS011;1368;49.484;11.112;2023-03-01T08:09:39;35.23;;;21.60;;
2720;SDS011;1368;49.484;11.112;2023-03-01T08:12:04;33.30;;;21.37;;
2720;SDS011;1368;49.484;11.112;2023-03-01T08:14:31;29.70;;;20.57;;
2720;SDS011;1368;49.484;11.112;2023-03-01T08:16:57;31.50;;;21.13;;
2720;SDS011;1368;49.484;11.112;2023-03-01T08:19:23;33.23;;;22.80;;
2720;SDS011;1368;49.484;11.112;2023-03-01T08:21:48;32.17;;;21.90;;
2720;SDS011;1368;49.484;11.112;2023-03-01T08:24:14;30.57;;;21.20;;
2720;SDS011;1368;49.484;11.112;2023-03-01T08:26:40;35.20;;;20.37;;
2720;SDS011;1368;49.484;11.112;2023-03-01T08:29:05;34.30;;;20.70;;
2720;SDS011;1368;49.484;11.112;2023-03-01T08:31:35;29.47;;;19.60;;
2720;SDS011;1368;49.484;11.112;2023-03-01T08:34:04;39.43;;;21.63;;
2720;SDS011;1368;49.484;11.112;2023-03-01T08:36:33;34.30;;;17.17;;
2720;SDS011;1368;49.484;11.112;2023-03-01T08:39:02;36.50;;;21.53;;
2720;SDS011;1368;49.484;11.112;2023-03-01T08:41:28;35.00;;;20.37;;
2720;SDS011;1368;49.484;11.112;2023-03-01T08:43:54;29.57;;;20.63;;
2720;SDS011;1368;49.484;11.112;2023-03-01T08:46:24;32.70;;;21.10;;
2720;SDS011;1368;49.484;11.112;2023-03-01T08:48:53;31.10;;;22.13;;
2720;SDS011;1368;49.484;11.112;2023-03-01T08:51:20;33.43;;;22.03;;
2720;SDS011;1368;49.484;11.112;2023-03-01T08:53:47;34.47;;;21.73;;
2720;SDS011;1368;49.484;11.112;2023-03-01T08:56:13;35.40;;;22.67;;
2720;SDS011;1368;49.484;11.112;2023-03-01T08:58:39;29.27;;;19.43;;
2720;SDS011;1368;49.484;11.112;2023-03-01T09:01:08;32.07;;;21.43;;
2720;SDS011;1368;49.484;11.112;2023-03-01T09:03:35;33.00;;;23.00;;
2720;SDS011;1368;49.484;11.112;2023-03-01T09:06:02;36.73;;;21.57;;
2720;SDS011;1368;49.484;11.112;2023-03-01T09:08:29;26.20;;;19.70;;
2720;SDS011;1368;49.484;11.112;2023-03-01T09:10:55;33.57;;;22.10;;
2720;SDS011;1368;49.484;11.112;2023-03-01T09:13:20;28.77;;;21.07;;
2720;SDS011;1368;49.484;11.112;2023-03-01T09:15:48;34.10;;;22.00;;
2720;SDS011;1368;49.484;11.112;2023-03-01T09:18:14;32.17;;;22.20;;
2720;SDS011;1368;49.484;11.112;2023-03-01T09:20:39;33.20;;;21.93;;
2720;SDS011;1368;49.484;11.112;2023-03-01T09:23:05;32.90;;;21.00;;
2720;SDS011;1368;49.484;11.112;2023-03-01T09:25:31;29.60;;;21.13;;
2720;SDS011;1368;49.484;11.112;2023-03-01T09:27:56;32.50;;;22.23;;
2720;SDS011;1368;49.484;11.112;2023-03-01T09:30:22;32.90;;;20.73;;
2720;SDS011;1368;49.484;11.112;2023-03-01T09:32:49;32.80;;;22.40;;
2720;SDS011;1368;49.484;11.112;2023-03-01T09:35:14;28.30;;;18.27;;
2720;SDS011;1368;49.484;11.112;2023-03-01T09:37:40;37.00;;;21.10;;
2720;SDS011;1368;49.484;11.112;2023-03-01T09:40:14;30.57;;;21.93;;
2720;SDS011;1368;49.484;11.112;2023-03-01T09:42:46;30.30;;;20.13;;
2720;SDS011;1368;49.484;11.112;2023-03-01T09:45:40;34.33;;;20.27;;
2720;SDS011;1368;49.484;11.112;2023-03-01T09:48:06;29.07;;;19.60;;
2720;SDS011;1368;49.484;11.112;2023-03-01T09:50:47;26.50;;;19.00;;
2720;SDS011;1368;49.484;11.112;2023-03-01T09:53:13;28.30;;;19.80;;
2720;SDS011;1368;49.484;11.112;2023-03-01T09:55:46;33.53;;;22.17;;
2720;SDS011;1368;49.484;11.112;2023-03-01T10:01:18;32.13;;;21.03;;
2720;SDS011;1368;49.484;11.112;2023-03-01T10:06:56;31.97;;;21.60;;
2720;SDS011;1368;49.484;11.112;2023-03-01T10:09:32;30.17;;;20.87;;
2720;SDS011;1368;49.484;11.112;2023-03-01T10:11:59;31.83;;;19.93;;
2720;SDS011;1368;49.484;11.112;2023-03-01T10:14:32;30.33;;;19.80;;
2720;SDS011;1368;49.484;11.112;2023-03-01T10:17:12;31.90;;;19.17;;
2720;SDS011;1368;49.484;11.112;2023-03-01T10:20:05;34.00;;;22.27;;
2720;SDS011;1368;49.484;11.112;2023-03-01T10:22:40;32.17;;;20.20;;
2720;SDS011;1368;49.484;11.112;2023-03-01T10:25:08;31.80;;;21.40;;
2720;SDS011;1368;49.484;11.112;2023-03-01T10:30:19;37.77;;;22.03;;
2720;SDS011;1368;49.484;11.112;2023-03-01T10:32:51;35.20;;;21.13;;
2720;SDS011;1368;49.484;11.112;2023-03-01T10:35:20;32.47;;;20.23;;
2720;SDS011;1368;49.484;11.112;2023-03-01T10:40:23;32.50;;;19.80;;
2720;SDS011;1368;49.484;11.112;2023-03-01T10:42:48;33.67;;;21.10;;
2720;SDS011;1368;49.484;11.112;2023-03-01T10:48:04;36.50;;;21.47;;
2720;SDS011;1368;49.484;11.112;2023-03-01T10:50:36;33.20;;;21.00;;
2720;SDS011;1368;49.484;11.112;2023-03-01T10:53:04;28.27;;;20.10;;
2720;SDS011;1368;49.484;11.112;2023-03-01T10:55:31;30.53;;;20.60;;
2720;SDS011;1368;49.484;11.112;2023-03-01T10:58:19;27.00;;;18.83;;
2720;SDS011;1368;49.484;11.112;2023-03-01T11:00:51;32.10;;;19.00;;
2720;SDS011;1368;49.484;11.112;2023-03-01T11:03:21;30.03;;;19.30;;
2720;SDS011;1368;49.484;11.112;2023-03-01T11:08:47;33.37;;;22.40;;
2720;SDS011;1368;49.484;11.112;2023-03-01T11:19:20;28.77;;;17.47;;
2720;SDS011;1368;49.484;11.112;2023-03-01T11:24:18;33.77;;;18.47;;
2720;SDS011;1368;49.484;11.112;2023-03-01T11:26:46;30.67;;;20.00;;
2720;SDS011;1368;49.484;11.112;2023-03-01T11:31:51;29.53;;;18.70;;
2720;SDS011;1368;49.484;11.112;2023-03-01T11:34:24;26.90;;;16.90;;
2720;SDS011;1368;49.484;11.112;2023-03-01T11:36:59;26.93;;;17.93;;
2720;SDS011;1368;49.484;11.112;2023-03-01T11:45:19;27.80;;;18.03;;
2720;SDS011;1368;49.484;11.112;2023-03-01T11:48:04;33.37;;;19.23;;
2720;SDS011;1368;49.484;11.112;2023-03-01T11:50:45;29.20;;;17.23;;
2720;SDS011;1368;49.484;11.112;2023-03-01T12:01:31;25.80;;;16.43;;
2720;SDS011;1368;49.484;11.112;2023-03-01T12:06:57;25.33;;;16.20;;
2720;SDS011;1368;49.484;11.112;2023-03-01T12:20:21;23.07;;;15.80;;
2720;SDS011;1368;49.484;11.112;2023-03-01T12:28:14;23.10;;;15.37;;
2720;SDS011;1368;49.484;11.112;2023-03-01T12:39:13;21.97;;;14.27;;
2720;SDS011;1368;49.484;11.112;2023-03-01T12:47:17;23.93;;;16.47;;
2720;SDS011;1368;49.484;11.112;2023-03-01T12:49:54;22.90;;;15.00;;
2720;SDS011;1368;49.484;11.112;2023-03-01T12:52:41;28.50;;;16.50;;
2720;SDS011;1368;49.484;11.112;2023-03-01T12:55:23;23.67;;;14.57;;
2720;SDS011;1368;49.484;11.112;2023-03-01T12:57:53;21.97;;;14.03;;
2720;SDS011;1368;49.484;11.112;2023-03-01T13:00:35;23.77;;;15.50;;
2720;SDS011;1368;49.484;11.112;2023-03-01T13:03:11;21.83;;;15.27;;
2720;SDS011;1368;49.484;11.112;2023-03-01T13:11:29;25.63;;;15.90;;
2720;SDS011;1368;49.484;11.112;2023-03-01T13:16:45;27.47;;;17.30;;
2720;SDS011;1368;49.484;11.112;2023-03-01T13:21:45;22.93;;;15.57;;
2720;SDS011;1368;49.484;11.112;2023-03-01T13:24:29;22.07;;;15.00;;
2720;SDS011;1368;49.484;11.112;2023-03-01T13:29:48;21.00;;;13.50;;
2720;SDS011;1368;49.484;11.112;2023-03-01T13:32:22;22.83;;;14.13;;
2720;SDS011;1368;49.484;11.112;2023-03-01T13:37:27;28.30;;;17.00;;
2720;SDS011;1368;49.484;11.112;2023-03-01T13:39:59;26.30;;;16.10;;
2720;SDS011;1368;49.484;11.112;2023-03-01T13:42:33;23.50;;;13.37;;
2720;SDS011;1368;49.484;11.112;2023-03-01T13:45:02;22.63;;;14.60;;
2720;SDS011;1368;49.484;11.112;2023-03-01T13:47:29;22.17;;;15.27;;
2720;SDS011;1368;49.484;11.112;2023-03-01T13:49:58;22.90;;;14.40;;
2720;SDS011;1368;49.484;11.112;2023-03-01T13:55:00;25.27;;;17.20;;
2720;SDS011;1368;49.484;11.112;2023-03-01T13:57:33;25.70;;;16.20;;
2720;SDS011;1368;49.484;11.112;2023-03-01T14:00:00;28.33;;;15.23;;
2720;SDS011;1368;49.484;11.112;2023-03-01T14:02:27;24.53;;;15.83;;
2720;SDS011;1368;49.484;11.112;2023-03-01T14:04:56;24.30;;;16.17;;
2720;SDS011;1368;49.484;11.112;2023-03-01T14:07:23;25.63;;;17.17;;
2720;SDS011;1368;49.484;11.112;2023-03-01T14:10:02;24.77;;;15.93;;
2720;SDS011;1368;49.484;11.112;2023-03-01T14:12:48;21.37;;;15.60;;
2720;SDS011;1368;49.484;11.112;2023-03-01T14:18:03;22.70;;;13.83;;
2720;SDS011;1368;49.484;11.112;2023-03-01T14:20:41;23.77;;;16.60;;
2720;SDS011;1368;49.484;11.112;2023-03-01T14:23:11;23.70;;;16.47;;
2720;SDS011;1368;49.484;11.112;2023-03-01T14:25:50;26.73;;;16.80;;
2720;SDS011;1368;49.484;11.112;2023-03-01T14:28:19;26.47;;;17.20;;
2720;SDS011;1368;49.484;11.112;2023-03-01T14:30:51;26.20;;;16.40;;
2720;SDS011;1368;49.484;11.112;2023-03-01T14:33:20;22.97;;;15.77;;
2720;SDS011;1368;49.484;11.112;2023-03-01T14:38:29;24.67;;;15.60;;
2720;SDS011;1368;49.484;11.112;2023-03-01T14:41:10;23.10;;;17.37;;
2720;SDS011;1368;49.484;11.112;2023-03-01T14:43:43;22.33;;;15.10;;
2720;SDS011;1368;49.484;11.112;2023-03-01T14:46:19;28.70;;;15.67;;
2720;SDS011;1368;49.484;11.112;2023-03-01T14:48:48;24.43;;;16.37;;
2720;SDS011;1368;49.484;11.112;2023-03-01T14:51:36;18.47;;;12.70;;
2720;SDS011;1368;49.484;11.112;2023-03-01T14:54:04;21.10;;;14.10;;
2720;SDS011;1368;49.484;11.112;2023-03-01T14:56:44;23.37;;;15.90;;
2720;SDS011;1368;49.484;11.112;2023-03-01T14:59:11;27.27;;;16.43;;
2720;SDS011;1368;49.484;11.112;2023-03-01T15:01:37;23.33;;;16.57;;
2720;SDS011;1368;49.484;11.112;2023-03-01T15:04:04;21.20;;;14.50;;
2720;SDS011;1368;49.484;11.112;2023-03-01T15:06:30;32.50;;;13.63;;
2720;SDS011;1368;49.484;11.112;2023-03-01T15:08:56;22.63;;;15.13;;
2720;SDS011;1368;49.484;11.112;2023-03-01T15:11:23;24.03;;;13.37;;
2720;SDS011;1368;49.484;11.112;2023-03-01T15:13:54;19.73;;;13.67;;
2720;SDS011;1368;49.484;11.112;2023-03-01T15:16:30;20.60;;;14.47;;
2720;SDS011;1368;49.484;11.112;2023-03-01T15:26:40;22.53;;;13.23;;
2720;SDS011;1368;49.484;11.112;2023-03-01T15:29:11;20.80;;;13.83;;
2720;SDS011;1368;49.484;11.112;2023-03-01T15:31:52;22.83;;;14.00;;
2720;SDS011;1368;49.484;11.112;2023-03-01T15:34:21;24.07;;;14.40;;
2720;SDS011;1368;49.484;11.112;2023-03-01T15:36:50;23.07;;;14.00;;
2720;SDS011;1368;49.484;11.112;2023-03-01T15:39:26;22.37;;;14.63;;
2720;SDS011;1368;49.484;11.112;2023-03-01T15:44:36;20.63;;;13.50;;
2720;SDS011;1368;49.484;11.112;2023-03-01T15:49:55;17.60;;;12.20;;
2720;SDS011;1368;49.484;11.112;2023-03-01T15:52:27;22.00;;;14.73;;
2720;SDS011;1368;49.484;11.112;2023-03-01T15:54:56;21.60;;;13.63;;
2720;SDS011;1368;49.484;11.112;2023-03-01T15:57:31;19.60;;;12.87;;
2720;SDS011;1368;49.484;11.112;2023-03-01T15:59:56;26.40;;;12.90;;
2720;SDS011;1368;49.484;11.112;2023-03-01T16:02:22;23.67;;;14.03;;
2720;SDS011;1368;49.484;11.112;2023-03-01T16:04:49;22.00;;;13.73;;
2720;SDS011;1368;49.484;11.112;2023-03-01T16:07:15;21.87;;;14.83;;
2720;SDS011;1368;49.484;11.112;2023-03-01T16:09:40;20.60;;;14.23;;
2720;SDS011;1368;49.484;11.112;2023-03-01T16:12:08;22.27;;;13.50;;
2720;SDS011;1368;49.484;11.112;2023-03-01T16:14:38;18.17;;;13.70;;
2720;SDS011;1368;49.484;11.112;2023-03-01T16:17:04;24.47;;;15.60;;
2720;SDS011;1368;49.484;11.112;2023-03-01T16:19:30;26.47;;;13.40;;
2720;SDS011;1368;49.484;11.112;2023-03-01T16:21:55;21.80;;;15.20;;
2720;SDS011;1368;49.484;11.112;2023-03-01T16:24:21;19.93;;;13.80;;
2720;SDS011;1368;49.484;11.112;2023-03-01T16:26:46;22.73;;;16.30;;
2720;SDS011;1368;49.484;11.112;2023-03-01T16:29:12;26.90;;;16.23;;
2720;SDS011;1368;49.484;11.112;2023-03-01T16:31:38;23.50;;;14.37;;
2720;SDS011;1368;49.484;11.112;2023-03-01T16:34:03;22.53;;;15.13;;
2720;SDS011;1368;49.484;11.112;2023-03-01T16:36:29;25.70;;;15.70;;
2720;SDS011;1368;49.484;11.112;2023-03-01T16:38:55;24.63;;;15.50;;
2720;SDS011;1368;49.484;11.112;2023-03-01T16:41:23;24.77;;;14.90;;
2720;SDS011;1368;49.484;11.112;2023-03-01T16:43:49;25.20;;;14.43;;
2720;SDS011;1368;49.484;11.112;2023-03-01T16:46:19;22.03;;;15.87;;
2720;SDS011;1368;49.484;11.112;2023-03-01T16:48:50;21.97;;;14.90;;